Calumet, Minnesota
Current Conditions -  °F | °C
As of 2:35 PM on Monday 26 Jan 2015 (Local Time) from KGPZ Reporting Station
Overcast Overcast  
Wind Chill: 24°   Ceiling: 3100
Heat Index: 34°   Visibility: 10mi
Dew Point: 32°   Wind: 14mph
Humidity: 93%   Direction: 320°NW
Pressure: 29.7"   Gusts: NA
Location:  47.32°N, 93.28°W
Report Text: KGPZ 262035Z AUTO 32012KT 10SM FEW016 SCT024 OVC031 01/00 A2970 RMK AO1
Loading
Personal Weather Stations






























Interactive Weather Map New forecast layout! Learn more

10-Day Weather Forecast

Advertisements
Track Severe Weather on mobile